sensor_id;sensor_type;location;lat;lon;timestamp;pressure;altitude;pressure_sealevel;temperature;humidity
45888;BME280;31595;51.418;7.572;2023-03-01T00:01:40;101703.44;;;-0.63;62.26
45888;BME280;31595;51.418;7.572;2023-03-01T00:04:08;101695.63;;;-0.59;61.62
45888;BME280;31595;51.418;7.572;2023-03-01T00:06:35;101681.94;;;-0.59;61.55
45888;BME280;31595;51.418;7.572;2023-03-01T00:09:03;101679.84;;;-0.57;61.29
45888;BME280;31595;51.418;7.572;2023-03-01T00:11:32;101686.78;;;-0.61;61.46
45888;BME280;31595;51.418;7.572;2023-03-01T00:14:03;101678.81;;;-0.63;61.38
45888;BME280;31595;51.418;7.572;2023-03-01T00:16:37;101678.19;;;-0.65;62.09
45888;BME280;31595;51.418;7.572;2023-03-01T00:19:08;101671.66;;;-0.70;62.51
45888;BME280;31595;51.418;7.572;2023-03-01T00:21:40;101668.06;;;-0.77;61.92
45888;BME280;31595;51.418;7.572;2023-03-01T00:24:08;101670.19;;;-0.79;62.13
45888;BME280;31595;51.418;7.572;2023-03-01T00:26:37;101670.19;;;-0.79;61.44
45888;BME280;31595;51.418;7.572;2023-03-01T00:29:09;101662.38;;;-0.83;61.82
45888;BME280;31595;51.418;7.572;2023-03-01T00:31:37;101667.22;;;-0.85;62.34
45888;BME280;31595;51.418;7.572;2023-03-01T00:34:05;101667.41;;;-0.93;62.00
45888;BME280;31595;51.418;7.572;2023-03-01T00:36:35;101672.44;;;-1.03;61.90
45888;BME280;31595;51.418;7.572;2023-03-01T00:39:04;101662.78;;;-0.99;61.79
45888;BME280;31595;51.418;7.572;2023-03-01T00:41:32;101658.81;;;-0.96;62.06
45888;BME280;31595;51.418;7.572;2023-03-01T00:44:01;101656.66;;;-1.01;61.36
45888;BME280;31595;51.418;7.572;2023-03-01T00:46:30;101656.03;;;-1.03;61.43
45888;BME280;31595;51.418;7.572;2023-03-01T00:48:59;101650.38;;;-1.08;62.08
45888;BME280;31595;51.418;7.572;2023-03-01T00:51:28;101653.28;;;-1.16;61.89
45888;BME280;31595;51.418;7.572;2023-03-01T00:53:57;101647.38;;;-1.27;61.59
45888;BME280;31595;51.418;7.572;2023-03-01T00:56:26;101646.75;;;-1.29;61.65
45888;BME280;31595;51.418;7.572;2023-03-01T00:58:54;101646.09;;;-1.31;62.46
45888;BME280;31595;51.418;7.572;2023-03-01T01:01:24;101635.59;;;-1.34;62.75
45888;BME280;31595;51.418;7.572;2023-03-01T01:03:56;101631.16;;;-1.35;62.58
45888;BME280;31595;51.418;7.572;2023-03-01T01:06:28;101643.97;;;-1.42;63.13
45888;BME280;31595;51.418;7.572;2023-03-01T01:09:06;101630.13;;;-1.40;62.75
45888;BME280;31595;51.418;7.572;2023-03-01T01:11:35;101640.19;;;-1.41;62.16
45888;BME280;31595;51.418;7.572;2023-03-01T01:14:03;101633.44;;;-1.45;62.26
45888;BME280;31595;51.418;7.572;2023-03-01T01:16:30;101625.88;;;-1.50;62.88
45888;BME280;31595;51.418;7.572;2023-03-01T01:19:01;101614.94;;;-1.50;62.61
45888;BME280;31595;51.418;7.572;2023-03-01T01:21:28;101612.03;;;-1.48;62.15
45888;BME280;31595;51.418;7.572;2023-03-01T01:23:56;101614.75;;;-1.48;62.70
45888;BME280;31595;51.418;7.572;2023-03-01T01:26:31;101625.25;;;-1.52;62.49
45888;BME280;31595;51.418;7.572;2023-03-01T01:28:59;101627.13;;;-1.52;62.93
45888;BME280;31595;51.418;7.572;2023-03-01T01:31:28;101616.84;;;-1.57;63.18
45888;BME280;31595;51.418;7.572;2023-03-01T01:33:56;101617.88;;;-1.58;62.42
45888;BME280;31595;51.418;7.572;2023-03-01T01:36:26;101616.38;;;-1.60;62.49
45888;BME280;31595;51.418;7.572;2023-03-01T01:39:05;101623.31;;;-1.65;63.17
45888;BME280;31595;51.418;7.572;2023-03-01T01:41:33;101620.94;;;-1.74;63.39
45888;BME280;31595;51.418;7.572;2023-03-01T01:44:14;101621.00;;;-1.68;62.56
45888;BME280;31595;51.418;7.572;2023-03-01T01:46:44;101619.94;;;-1.67;63.29
45888;BME280;31595;51.418;7.572;2023-03-01T01:49:17;101622.03;;;-1.69;62.74
45888;BME280;31595;51.418;7.572;2023-03-01T01:51:53;101626.66;;;-1.69;62.81
45888;BME280;31595;51.418;7.572;2023-03-01T01:54:25;101621.41;;;-1.71;62.79
45888;BME280;31595;51.418;7.572;2023-03-01T01:56:57;101614.03;;;-1.70;63.50
45888;BME280;31595;51.418;7.572;2023-03-01T01:59:28;101607.34;;;-1.68;63.76
45888;BME280;31595;51.418;7.572;2023-03-01T02:01:58;101601.63;;;-1.73;63.42
45888;BME280;31595;51.418;7.572;2023-03-01T02:04:26;101613.81;;;-1.82;62.93
45888;BME280;31595;51.418;7.572;2023-03-01T02:06:58;101599.31;;;-1.82;62.83
45888;BME280;31595;51.418;7.572;2023-03-01T02:09:27;101590.69;;;-1.86;63.25
45888;BME280;31595;51.418;7.572;2023-03-01T02:11:55;101589.22;;;-1.89;63.37
45888;BME280;31595;51.418;7.572;2023-03-01T02:14:22;101593.81;;;-1.89;63.13
45888;BME280;31595;51.418;7.572;2023-03-01T02:16:50;101597.78;;;-1.92;62.66
45888;BME280;31595;51.418;7.572;2023-03-01T02:19:25;101588.31;;;-1.96;63.69
45888;BME280;31595;51.418;7.572;2023-03-01T02:22:00;101586.22;;;-2.00;63.00
45888;BME280;31595;51.418;7.572;2023-03-01T02:24:38;101600.69;;;-2.00;63.58
45888;BME280;31595;51.418;7.572;2023-03-01T02:27:11;101591.66;;;-2.00;63.51
45888;BME280;31595;51.418;7.572;2023-03-01T02:29:40;101591.66;;;-2.00;63.20
45888;BME280;31595;51.418;7.572;2023-03-01T02:32:11;101590.38;;;-2.05;63.74
45888;BME280;31595;51.418;7.572;2023-03-01T02:34:39;101595.84;;;-2.05;63.16
45888;BME280;31595;51.418;7.572;2023-03-01T02:37:11;101591.66;;;-2.07;63.66
45888;BME280;31595;51.418;7.572;2023-03-01T02:39:44;101598.13;;;-2.08;63.69
45888;BME280;31595;51.418;7.572;2023-03-01T02:42:16;101587.22;;;-2.08;62.82
45888;BME280;31595;51.418;7.572;2023-03-01T02:44:50;101587.19;;;-2.15;62.76
45888;BME280;31595;51.418;7.572;2023-03-01T02:47:17;101594.09;;;-2.19;62.77
45888;BME280;31595;51.418;7.572;2023-03-01T02:49:44;101595.13;;;-2.27;62.75
45888;BME280;31595;51.418;7.572;2023-03-01T02:52:27;101590.69;;;-2.28;62.90
45888;BME280;31595;51.418;7.572;2023-03-01T02:55:01;101584.78;;;-2.31;63.22
45888;BME280;31595;51.418;7.572;2023-03-01T02:57:35;101586.03;;;-2.34;64.08
45888;BME280;31595;51.418;7.572;2023-03-01T03:00:10;101588.13;;;-2.36;63.31
45888;BME280;31595;51.418;7.572;2023-03-01T03:02:45;101581.00;;;-2.37;63.75
45888;BME280;31595;51.418;7.572;2023-03-01T03:05:18;101581.84;;;-2.36;63.75
45888;BME280;31595;51.418;7.572;2023-03-01T03:07:47;101581.41;;;-2.33;63.15
45888;BME280;31595;51.418;7.572;2023-03-01T03:10:18;101577.66;;;-2.32;63.63
45888;BME280;31595;51.418;7.572;2023-03-01T03:12:49;101574.94;;;-2.32;63.75
45888;BME280;31595;51.418;7.572;2023-03-01T03:15:22;101573.47;;;-2.35;63.50
45888;BME280;31595;51.418;7.572;2023-03-01T03:17:51;101575.75;;;-2.38;63.30
45888;BME280;31595;51.418;7.572;2023-03-01T03:20:20;101570.47;;;-2.40;64.12
45888;BME280;31595;51.418;7.572;2023-03-01T03:22:49;101568.34;;;-2.45;64.05
45888;BME280;31595;51.418;7.572;2023-03-01T03:25:17;101572.97;;;-2.45;63.88
45888;BME280;31595;51.418;7.572;2023-03-01T03:27:46;101570.63;;;-2.48;64.11
45888;BME280;31595;51.418;7.572;2023-03-01T03:30:16;101568.78;;;-2.48;63.21
45888;BME280;31595;51.418;7.572;2023-03-01T03:32:47;101578.81;;;-2.48;64.19
45888;BME280;31595;51.418;7.572;2023-03-01T03:35:19;101584.50;;;-2.50;64.03
45888;BME280;31595;51.418;7.572;2023-03-01T03:37:49;101580.06;;;-2.51;63.40
45888;BME280;31595;51.418;7.572;2023-03-01T03:40:31;101566.19;;;-2.56;63.62
45888;BME280;31595;51.418;7.572;2023-03-01T03:42:59;101556.44;;;-2.72;63.63
45888;BME280;31595;51.418;7.572;2023-03-01T03:45:26;101561.91;;;-2.72;63.80
45888;BME280;31595;51.418;7.572;2023-03-01T03:47:55;101554.34;;;-2.70;63.78
45888;BME280;31595;51.418;7.572;2023-03-01T03:50:22;101544.28;;;-2.69;63.94
45888;BME280;31595;51.418;7.572;2023-03-01T03:52:51;101534.16;;;-2.75;63.87
45888;BME280;31595;51.418;7.572;2023-03-01T03:55:19;101539.25;;;-2.72;64.06
45888;BME280;31595;51.418;7.572;2023-03-01T03:57:47;101531.06;;;-2.72;63.79
45888;BME280;31595;51.418;7.572;2023-03-01T04:00:19;101533.34;;;-2.76;64.36
45888;BME280;31595;51.418;7.572;2023-03-01T04:02:47;101538.59;;;-2.74;63.60
45888;BME280;31595;51.418;7.572;2023-03-01T04:05:18;101532.50;;;-2.76;63.79
45888;BME280;31595;51.418;7.572;2023-03-01T04:07:45;101531.41;;;-2.82;63.92
45888;BME280;31595;51.418;7.572;2023-03-01T04:10:17;101549.44;;;-2.88;63.63
45888;BME280;31595;51.418;7.572;2023-03-01T04:12:45;101544.16;;;-2.89;63.78
45888;BME280;31595;51.418;7.572;2023-03-01T04:15:12;101551.50;;;-2.90;64.34
45888;BME280;31595;51.418;7.572;2023-03-01T04:17:40;101550.25;;;-2.87;64.09
45888;BME280;31595;51.418;7.572;2023-03-01T04:20:14;101546.69;;;-2.88;64.05
45888;BME280;31595;51.418;7.572;2023-03-01T04:22:44;101547.91;;;-2.90;64.16
45888;BME280;31595;51.418;7.572;2023-03-01T04:25:15;101540.59;;;-2.90;64.34
45888;BME280;31595;51.418;7.572;2023-03-01T04:27:44;101546.06;;;-2.90;63.93
45888;BME280;31595;51.418;7.572;2023-03-01T04:30:12;101552.53;;;-2.91;64.30
45888;BME280;31595;51.418;7.572;2023-03-01T04:32:40;101558.00;;;-2.91;64.37
45888;BME280;31595;51.418;7.572;2023-03-01T04:35:08;101552.94;;;-2.94;64.21
45888;BME280;31595;51.418;7.572;2023-03-01T04:37:35;101555.44;;;-2.92;64.48
45888;BME280;31595;51.418;7.572;2023-03-01T04:40:06;101547.03;;;-2.97;64.51
45888;BME280;31595;51.418;7.572;2023-03-01T04:42:41;101546.44;;;-2.93;64.80
45888;BME280;31595;51.418;7.572;2023-03-01T04:45:10;101539.69;;;-2.97;65.06
45888;BME280;31595;51.418;7.572;2023-03-01T04:47:39;101544.22;;;-3.11;64.34
45888;BME280;31595;51.418;7.572;2023-03-01T04:50:08;101545.75;;;-3.01;64.27
45888;BME280;31595;51.418;7.572;2023-03-01T04:52:36;101548.28;;;-3.00;64.06
45888;BME280;31595;51.418;7.572;2023-03-01T04:55:06;101545.75;;;-3.01;63.82
45888;BME280;31595;51.418;7.572;2023-03-01T04:57:34;101545.69;;;-3.08;63.50
45888;BME280;31595;51.418;7.572;2023-03-01T05:00:09;101550.69;;;-3.12;63.61
45888;BME280;31595;51.418;7.572;2023-03-01T05:02:47;101553.63;;;-3.13;63.82
45888;BME280;31595;51.418;7.572;2023-03-01T05:05:20;101552.59;;;-3.12;63.39
45888;BME280;31595;51.418;7.572;2023-03-01T05:07:52;101553.56;;;-3.20;63.72
45888;BME280;31595;51.418;7.572;2023-03-01T05:10:25;101554.41;;;-3.19;63.62
45888;BME280;31595;51.418;7.572;2023-03-01T05:12:54;101549.59;;;-3.17;63.80
45888;BME280;31595;51.418;7.572;2023-03-01T05:15:23;101553.38;;;-3.18;63.63
45888;BME280;31595;51.418;7.572;2023-03-01T05:17:52;101546.31;;;-3.34;63.61
45888;BME280;31595;51.418;7.572;2023-03-01T05:20:22;101545.28;;;-3.33;63.52
45888;BME280;31595;51.418;7.572;2023-03-01T05:22:50;101542.56;;;-3.33;63.94
45888;BME280;31595;51.418;7.572;2023-03-01T05:25:17;101541.00;;;-3.42;63.51
45888;BME280;31595;51.418;7.572;2023-03-01T05:27:47;101537.25;;;-3.41;63.54
45888;BME280;31595;51.418;7.572;2023-03-01T05:30:15;101525.69;;;-3.43;63.91
45888;BME280;31595;51.418;7.572;2023-03-01T05:32:45;101530.31;;;-3.44;63.93
45888;BME280;31595;51.418;7.572;2023-03-01T05:35:15;101528.66;;;-3.38;63.73
45888;BME280;31595;51.418;7.572;2023-03-01T05:37:44;101522.38;;;-3.39;63.97
45888;BME280;31595;51.418;7.572;2023-03-01T05:40:15;101524.88;;;-3.44;63.93
45888;BME280;31595;51.418;7.572;2023-03-01T05:42:43;101525.25;;;-3.47;64.17
45888;BME280;31595;51.418;7.572;2023-03-01T05:45:16;101529.84;;;-3.48;64.03
45888;BME280;31595;51.418;7.572;2023-03-01T05:47:49;101535.75;;;-3.44;63.69
45888;BME280;31595;51.418;7.572;2023-03-01T05:50:19;101530.97;;;-3.42;63.86
45888;BME280;31595;51.418;7.572;2023-03-01T05:52:47;101532.59;;;-3.48;63.74
45888;BME280;31595;51.418;7.572;2023-03-01T05:55:16;101534.06;;;-3.45;63.92
45888;BME280;31595;51.418;7.572;2023-03-01T05:57:45;101534.72;;;-3.43;63.80
45888;BME280;31595;51.418;7.572;2023-03-01T06:00:16;101538.69;;;-3.45;63.21
45888;BME280;31595;51.418;7.572;2023-03-01T06:02:46;101536.53;;;-3.50;63.38
45888;BME280;31595;51.418;7.572;2023-03-01T06:05:14;101534.97;;;-3.59;63.65
45888;BME280;31595;51.418;7.572;2023-03-01T06:07:41;101535.44;;;-3.56;64.00
45888;BME280;31595;51.418;7.572;2023-03-01T06:10:11;101534.97;;;-3.59;63.79
45888;BME280;31595;51.418;7.572;2023-03-01T06:12:40;101533.34;;;-3.54;64.37
45888;BME280;31595;51.418;7.572;2023-03-01T06:15:12;101540.28;;;-3.51;63.73
45888;BME280;31595;51.418;7.572;2023-03-01T06:17:43;101539.25;;;-3.50;63.79
45888;BME280;31595;51.418;7.572;2023-03-01T06:20:18;101543.28;;;-3.46;63.73
45888;BME280;31595;51.418;7.572;2023-03-01T06:22:50;101541.22;;;-3.44;63.53
45888;BME280;31595;51.418;7.572;2023-03-01T06:25:20;101536.41;;;-3.42;63.67
45888;BME280;31595;51.418;7.572;2023-03-01T06:27:48;101542.09;;;-3.37;63.43
45888;BME280;31595;51.418;7.572;2023-03-01T06:30:19;101539.25;;;-3.29;63.09
45888;BME280;31595;51.418;7.572;2023-03-01T06:32:52;101536.34;;;-3.27;63.06
45888;BME280;31595;51.418;7.572;2023-03-01T06:35:27;101535.47;;;-3.28;63.35
45888;BME280;31595;51.418;7.572;2023-03-01T06:37:57;101530.66;;;-3.26;63.59
45888;BME280;31595;51.418;7.572;2023-03-01T06:40:25;101529.22;;;-3.21;63.41
45888;BME280;31595;51.418;7.572;2023-03-01T06:42:57;101521.50;;;-3.18;63.48
45888;BME280;31595;51.418;7.572;2023-03-01T06:45:28;101520.72;;;-3.12;63.61
45888;BME280;31595;51.418;7.572;2023-03-01T06:48:07;101520.34;;;-3.09;63.46
45888;BME280;31595;51.418;7.572;2023-03-01T06:50:37;101521.88;;;-2.99;63.31
45888;BME280;31595;51.418;7.572;2023-03-01T06:53:13;101522.25;;;-2.74;62.89
45888;BME280;31595;51.418;7.572;2023-03-01T06:55:40;101519.06;;;-1.75;62.57
45888;BME280;31595;51.418;7.572;2023-03-01T06:58:09;101512.25;;;-0.39;60.36
45888;BME280;31595;51.418;7.572;2023-03-01T07:00:37;101508.50;;;0.89;58.16
45888;BME280;31595;51.418;7.572;2023-03-01T07:03:15;101508.66;;;1.93;54.31
45888;BME280;31595;51.418;7.572;2023-03-01T07:05:43;101505.00;;;3.07;52.56
45888;BME280;31595;51.418;7.572;2023-03-01T07:08:12;101497.34;;;3.85;49.63
45888;BME280;31595;51.418;7.572;2023-03-01T07:10:45;101491.69;;;4.66;48.75
45888;BME280;31595;51.418;7.572;2023-03-01T07:13:13;101484.34;;;5.66;45.22
45888;BME280;31595;51.418;7.572;2023-03-01T07:15:43;101489.13;;;6.42;43.67
45888;BME280;31595;51.418;7.572;2023-03-01T07:18:12;101487.66;;;7.37;40.43
45888;BME280;31595;51.418;7.572;2023-03-01T07:20:43;101483.00;;;8.10;40.04
45888;BME280;31595;51.418;7.572;2023-03-01T07:23:10;101476.47;;;8.52;37.67
45888;BME280;31595;51.418;7.572;2023-03-01T07:25:38;101472.53;;;9.30;36.76
45888;BME280;31595;51.418;7.572;2023-03-01T07:28:40;101472.19;;;10.23;34.31
45888;BME280;31595;51.418;7.572;2023-03-01T07:31:08;101476.25;;;10.80;34.51
45888;BME280;31595;51.418;7.572;2023-03-01T07:33:56;101469.31;;;11.36;33.06
45888;BME280;31595;51.418;7.572;2023-03-01T07:36:25;101459.09;;;12.17;31.18
45888;BME280;31595;51.418;7.572;2023-03-01T07:38:58;101452.13;;;12.72;31.21
45888;BME280;31595;51.418;7.572;2023-03-01T07:41:28;101448.34;;;13.28;29.72
45888;BME280;31595;51.418;7.572;2023-03-01T07:44:13;101448.06;;;13.85;28.40
45888;BME280;31595;51.418;7.572;2023-03-01T07:46:48;101441.44;;;14.90;27.92
45888;BME280;31595;51.418;7.572;2023-03-01T07:49:17;101454.06;;;14.79;27.84
45888;BME280;31595;51.418;7.572;2023-03-01T07:51:44;101440.44;;;15.49;26.09
45888;BME280;31595;51.418;7.572;2023-03-01T07:54:12;101447.56;;;16.12;25.52
45888;BME280;31595;51.418;7.572;2023-03-01T07:56:39;101450.59;;;16.59;25.17
45888;BME280;31595;51.418;7.572;2023-03-01T07:59:07;101442.22;;;17.15;24.73
45888;BME280;31595;51.418;7.572;2023-03-01T08:01:35;101442.88;;;17.68;23.57
45888;BME280;31595;51.418;7.572;2023-03-01T08:04:05;101440.88;;;18.28;23.40
45888;BME280;31595;51.418;7.572;2023-03-01T08:06:36;101432.84;;;18.93;23.45
45888;BME280;31595;51.418;7.572;2023-03-01T08:09:03;101438.25;;;19.56;22.29
45888;BME280;31595;51.418;7.572;2023-03-01T08:11:37;101442.88;;;19.98;21.96
45888;BME280;31595;51.418;7.572;2023-03-01T08:14:07;101445.94;;;19.93;21.20
45888;BME280;31595;51.418;7.572;2023-03-01T08:16:36;101447.38;;;20.52;21.56
45888;BME280;31595;51.418;7.572;2023-03-01T08:19:08;101439.78;;;21.72;20.35
45888;BME280;31595;51.418;7.572;2023-03-01T08:21:38;101435.25;;;22.03;19.93
45888;BME280;31595;51.418;7.572;2023-03-01T08:24:06;101439.06;;;22.46;19.19
45888;BME280;31595;51.418;7.572;2023-03-01T08:26:36;101436.69;;;22.67;19.27
45888;BME280;31595;51.418;7.572;2023-03-01T08:29:07;101434.66;;;23.07;18.79
45888;BME280;31595;51.418;7.572;2023-03-01T08:31:36;101433.72;;;23.45;18.63
45888;BME280;31595;51.418;7.572;2023-03-01T08:34:07;101429.00;;;23.53;18.43
45888;BME280;31595;51.418;7.572;2023-03-01T08:36:38;101421.94;;;24.20;18.04
45888;BME280;31595;51.418;7.572;2023-03-01T08:39:07;101428.44;;;24.20;18.15
45888;BME280;31595;51.418;7.572;2023-03-01T08:41:38;101429.63;;;24.80;17.39
45888;BME280;31595;51.418;7.572;2023-03-01T08:44:07;101426.19;;;25.38;16.77
45888;BME280;31595;51.418;7.572;2023-03-01T08:46:36;101423.44;;;25.97;15.92
45888;BME280;31595;51.418;7.572;2023-03-01T08:49:12;101419.94;;;26.22;15.74
45888;BME280;31595;51.418;7.572;2023-03-01T08:51:42;101423.97;;;27.16;15.08
45888;BME280;31595;51.418;7.572;2023-03-01T08:54:11;101417.88;;;27.31;14.63
45888;BME280;31595;51.418;7.572;2023-03-01T08:56:41;101413.81;;;27.61;14.57
45888;BME280;31595;51.418;7.572;2023-03-01T08:59:09;101417.84;;;28.25;14.03
45888;BME280;31595;51.418;7.572;2023-03-01T09:01:37;101412.00;;;28.61;13.95
45888;BME280;31595;51.418;7.572;2023-03-01T09:04:06;101406.75;;;29.19;12.96
45888;BME280;31595;51.418;7.572;2023-03-01T09:06:44;101417.47;;;29.70;12.78
45888;BME280;31595;51.418;7.572;2023-03-01T09:09:14;101409.06;;;30.28;12.87
45888;BME280;31595;51.418;7.572;2023-03-01T09:11:42;101409.00;;;30.35;12.75
45888;BME280;31595;51.418;7.572;2023-03-01T09:14:12;101397.22;;;30.57;12.32
45888;BME280;31595;51.418;7.572;2023-03-01T09:19:34;101390.69;;;31.14;11.97
45888;BME280;31595;51.418;7.572;2023-03-01T09:22:04;101387.28;;;31.70;11.88
45888;BME280;31595;51.418;7.572;2023-03-01T09:24:40;101376.19;;;31.92;10.95
45888;BME280;31595;51.418;7.572;2023-03-01T09:27:08;101377.53;;;32.88;10.66
45888;BME280;31595;51.418;7.572;2023-03-01T09:29:37;101369.19;;;33.26;10.63
45888;BME280;31595;51.418;7.572;2023-03-01T09:32:04;101368.03;;;33.40;10.51
45888;BME280;31595;51.418;7.572;2023-03-01T09:34:47;101356.50;;;32.87;10.21
45888;BME280;31595;51.418;7.572;2023-03-01T09:38:06;101348.03;;;33.79;10.06
45888;BME280;31595;51.418;7.572;2023-03-01T09:40:57;101349.50;;;34.16;10.05
45888;BME280;31595;51.418;7.572;2023-03-01T09:43:43;101342.56;;;34.68;9.55
45888;BME280;31595;51.418;7.572;2023-03-01T09:46:14;101339.81;;;34.90;9.52
45888;BME280;31595;51.418;7.572;2023-03-01T09:48:46;101338.97;;;34.64;9.45
45888;BME280;31595;51.418;7.572;2023-03-01T09:51:18;101342.34;;;35.27;9.39
45888;BME280;31595;51.418;7.572;2023-03-01T09:53:48;101344.53;;;35.35;9.28
45888;BME280;31595;51.418;7.572;2023-03-01T09:56:20;101343.66;;;35.61;8.59
45888;BME280;31595;51.418;7.572;2023-03-01T09:58:54;101341.66;;;34.97;9.60
45888;BME280;31595;51.418;7.572;2023-03-01T10:01:38;101348.66;;;34.57;9.47
45888;BME280;31595;51.418;7.572;2023-03-01T10:04:28;101347.91;;;34.70;9.39
45888;BME280;31595;51.418;7.572;2023-03-01T10:07:27;101350.19;;;34.88;8.95
45888;BME280;31595;51.418;7.572;2023-03-01T10:13:29;101347.72;;;35.98;8.72
45888;BME280;31595;51.418;7.572;2023-03-01T10:16:05;101341.25;;;36.38;8.23
45888;BME280;31595;51.418;7.572;2023-03-01T10:18:37;101342.16;;;37.20;8.81
45888;BME280;31595;51.418;7.572;2023-03-01T10:21:17;101336.44;;;37.93;8.19
45888;BME280;31595;51.418;7.572;2023-03-01T10:23:50;101328.81;;;38.33;7.74
45888;BME280;31595;51.418;7.572;2023-03-01T10:26:47;101332.56;;;37.69;8.06
45888;BME280;31595;51.418;7.572;2023-03-01T10:29:17;101337.19;;;36.98;8.38
45888;BME280;31595;51.418;7.572;2023-03-01T10:31:49;101323.53;;;36.67;8.18
45888;BME280;31595;51.418;7.572;2023-03-01T10:34:35;101317.22;;;37.68;7.73
45888;BME280;31595;51.418;7.572;2023-03-01T10:37:12;101316.81;;;38.40;7.68
45888;BME280;31595;51.418;7.572;2023-03-01T10:39:56;101310.22;;;38.03;7.52
45888;BME280;31595;51.418;7.572;2023-03-01T10:42:27;101308.00;;;37.97;7.38
45888;BME280;31595;51.418;7.572;2023-03-01T10:45:15;101299.72;;;37.41;7.79
45888;BME280;31595;51.418;7.572;2023-03-01T10:50:24;101294.69;;;36.42;7.79
45888;BME280;31595;51.418;7.572;2023-03-01T10:52:57;101300.84;;;36.75;8.89
45888;BME280;31595;51.418;7.572;2023-03-01T10:55:33;101289.75;;;37.78;7.86
45888;BME280;31595;51.418;7.572;2023-03-01T10:58:17;101277.13;;;39.28;7.16
45888;BME280;31595;51.418;7.572;2023-03-01T11:01:24;101285.00;;;40.29;6.73
45888;BME280;31595;51.418;7.572;2023-03-01T11:04:12;101278.78;;;40.87;6.54
45888;BME280;31595;51.418;7.572;2023-03-01T11:07:01;101277.34;;;41.79;6.62
45888;BME280;31595;51.418;7.572;2023-03-01T11:09:34;101279.56;;;41.23;6.77
45888;BME280;31595;51.418;7.572;2023-03-01T11:12:13;101281.69;;;42.42;6.46
45888;BME280;31595;51.418;7.572;2023-03-01T11:14:46;101277.81;;;42.88;6.54
45888;BME280;31595;51.418;7.572;2023-03-01T11:17:23;101282.75;;;42.70;6.02
45888;BME280;31595;51.418;7.572;2023-03-01T11:20:05;101267.34;;;42.81;6.21
45888;BME280;31595;51.418;7.572;2023-03-01T11:22:44;101258.03;;;42.83;6.50
45888;BME280;31595;51.418;7.572;2023-03-01T11:25:15;101254.13;;;42.91;6.21
45888;BME280;31595;51.418;7.572;2023-03-01T11:27:48;101254.53;;;43.22;6.40
45888;BME280;31595;51.418;7.572;2023-03-01T11:30:21;101254.69;;;43.55;5.79
45888;BME280;31595;51.418;7.572;2023-03-01T11:33:01;101251.03;;;43.17;6.05
45888;BME280;31595;51.418;7.572;2023-03-01T11:35:31;101250.63;;;42.87;6.13
45888;BME280;31595;51.418;7.572;2023-03-01T11:38:09;101250.41;;;42.91;6.25
45888;BME280;31595;51.418;7.572;2023-03-01T11:40:52;101255.88;;;43.21;5.84
45888;BME280;31595;51.418;7.572;2023-03-01T11:43:33;101244.41;;;43.23;5.93
45888;BME280;31595;51.418;7.572;2023-03-01T11:49:30;101256.09;;;43.71;5.74
45888;BME280;31595;51.418;7.572;2023-03-01T11:52:07;101248.34;;;42.65;5.98
45888;BME280;31595;51.418;7.572;2023-03-01T11:54:50;101246.84;;;42.12;6.72
45888;BME280;31595;51.418;7.572;2023-03-01T11:57:38;101255.31;;;42.42;6.12
45888;BME280;31595;51.418;7.572;2023-03-01T12:04:27;101249.16;;;41.35;6.76
45888;BME280;31595;51.418;7.572;2023-03-01T12:07:05;101247.31;;;42.36;6.53
45888;BME280;31595;51.418;7.572;2023-03-01T12:09:56;101239.44;;;41.90;6.44
45888;BME280;31595;51.418;7.572;2023-03-01T12:12:44;101229.97;;;42.01;6.75
45888;BME280;31595;51.418;7.572;2023-03-01T12:15:49;101227.19;;;42.18;6.14
45888;BME280;31595;51.418;7.572;2023-03-01T12:18:33;101229.75;;;42.05;6.70
45888;BME280;31595;51.418;7.572;2023-03-01T12:21:21;101224.00;;;41.90;6.68
45888;BME280;31595;51.418;7.572;2023-03-01T12:27:23;101228.47;;;42.11;6.37
45888;BME280;31595;51.418;7.572;2023-03-01T12:30:15;101220.19;;;42.10;6.42
45888;BME280;31595;51.418;7.572;2023-03-01T12:32:53;101225.41;;;42.26;6.63
45888;BME280;31595;51.418;7.572;2023-03-01T12:35:50;101203.81;;;43.04;6.20
45888;BME280;31595;51.418;7.572;2023-03-01T12:38:32;101206.88;;;42.78;6.14
45888;BME280;31595;51.418;7.572;2023-03-01T12:41:40;101205.53;;;42.42;6.24
45888;BME280;31595;51.418;7.572;2023-03-01T12:44:39;101211.13;;;42.08;6.23
45888;BME280;31595;51.418;7.572;2023-03-01T12:47:23;101193.13;;;41.63;6.57
45888;BME280;31595;51.418;7.572;2023-03-01T12:49:57;101190.25;;;41.68;6.26
45888;BME280;31595;51.418;7.572;2023-03-01T12:52:32;101188.09;;;41.16;6.72
45888;BME280;31595;51.418;7.572;2023-03-01T12:55:21;101187.19;;;40.54;6.90
45888;BME280;31595;51.418;7.572;2023-03-01T12:57:56;101180.59;;;40.95;6.98
45888;BME280;31595;51.418;7.572;2023-03-01T13:00:51;101179.00;;;40.58;6.89
45888;BME280;31595;51.418;7.572;2023-03-01T13:03:28;101178.81;;;40.12;6.90
45888;BME280;31595;51.418;7.572;2023-03-01T13:06:09;101178.97;;;40.38;7.24
45888;BME280;31595;51.418;7.572;2023-03-01T13:08:41;101177.97;;;40.26;6.91
45888;BME280;31595;51.418;7.572;2023-03-01T13:11:18;101167.84;;;39.92;7.14
45888;BME280;31595;51.418;7.572;2023-03-01T13:17:30;101157.19;;;40.04;6.79
45888;BME280;31595;51.418;7.572;2023-03-01T13:20:20;101155.63;;;39.34;6.55
45888;BME280;31595;51.418;7.572;2023-03-01T13:23:09;101163.28;;;38.83;7.13
45888;BME280;31595;51.418;7.572;2023-03-01T13:28:52;101161.00;;;37.78;7.21
45888;BME280;31595;51.418;7.572;2023-03-01T13:34:59;101171.53;;;37.11;8.19
45888;BME280;31595;51.418;7.572;2023-03-01T13:37:30;101167.16;;;37.25;8.35
45888;BME280;31595;51.418;7.572;2023-03-01T13:42:46;101156.34;;;35.76;8.45
45888;BME280;31595;51.418;7.572;2023-03-01T13:45:24;101159.09;;;34.53;9.22
45888;BME280;31595;51.418;7.572;2023-03-01T13:48:02;101156.84;;;33.09;9.89
45888;BME280;31595;51.418;7.572;2023-03-01T13:50:42;101153.69;;;31.65;10.05
45888;BME280;31595;51.418;7.572;2023-03-01T14:05:15;101144.13;;;26.24;14.47
45888;BME280;31595;51.418;7.572;2023-03-01T14:08:00;101132.19;;;25.76;14.12
45888;BME280;31595;51.418;7.572;2023-03-01T14:11:15;101126.72;;;25.38;14.76